createdAt,value
2023-02-02T00:01:31.213Z,5.93
2023-02-02T00:04:00.990Z,4.57
2023-02-02T00:06:30.496Z,7.55
2023-02-02T00:08:59.475Z,4.97
2023-02-02T00:11:27.948Z,3.75
2023-02-02T00:13:56.346Z,2.93
2023-02-02T00:16:43.718Z,3.00
2023-02-02T00:19:14.892Z,2.95
2023-02-02T00:21:43.560Z,3.42
2023-02-02T00:24:13.337Z,3.65
2023-02-02T00:26:43.035Z,2.53
2023-02-02T00:29:15.793Z,3.35
2023-02-02T00:31:43.972Z,3.40
2023-02-02T00:34:14.553Z,3.42
2023-02-02T00:36:43.174Z,3.35
2023-02-02T00:39:12.167Z,4.03
2023-02-02T00:41:40.136Z,3.28
2023-02-02T00:44:26.135Z,3.58
2023-02-02T00:46:54.505Z,3.20
2023-02-02T00:49:24.423Z,3.40
2023-02-02T00:51:52.381Z,3.27
2023-02-02T00:54:20.614Z,3.20
2023-02-02T00:56:48.647Z,4.13
2023-02-02T00:59:16.847Z,3.35
2023-02-02T01:01:46.940Z,3.10
2023-02-02T01:04:15.256Z,3.40
2023-02-02T01:06:44.564Z,3.58
2023-02-02T01:09:12.799Z,3.45
2023-02-02T01:11:40.786Z,2.85
2023-02-02T01:14:09.666Z,3.55
2023-02-02T01:16:37.742Z,2.77
2023-02-02T01:19:06.025Z,3.85
2023-02-02T01:21:34.106Z,3.20
2023-02-02T01:24:03.664Z,3.50
2023-02-02T01:26:31.899Z,3.63
2023-02-02T01:29:00.130Z,2.97
2023-02-02T01:31:28.239Z,2.83
2023-02-02T01:33:56.907Z,3.17
2023-02-02T01:36:25.592Z,2.90
2023-02-02T01:38:53.843Z,3.00
2023-02-02T01:41:24.956Z,3.30
2023-02-02T01:43:56.718Z,3.08
2023-02-02T01:46:26.927Z,3.00
2023-02-02T01:48:59.878Z,3.15
2023-02-02T01:51:34.977Z,3.08
2023-02-02T01:54:03.851Z,2.80
2023-02-02T01:56:36.025Z,3.35
2023-02-02T01:59:04.871Z,2.90
2023-02-02T02:01:32.917Z,2.72
2023-02-02T02:04:01.310Z,3.42
2023-02-02T02:06:30.081Z,2.83
2023-02-02T02:09:01.253Z,2.72
2023-02-02T02:11:29.456Z,2.55
2023-02-02T02:14:19.367Z,2.33
2023-02-02T02:16:55.815Z,2.80
2023-02-02T02:20:30.656Z,2.80
2023-02-02T02:23:39.671Z,2.45
2023-02-02T02:26:37.497Z,2.70
2023-02-02T02:29:24.127Z,2.80
2023-02-02T02:32:27.193Z,2.47
2023-02-02T02:34:58.113Z,3.03
2023-02-02T02:37:33.474Z,3.03
2023-02-02T02:40:06.275Z,2.40
2023-02-02T02:42:37.584Z,2.78
2023-02-02T02:45:09.306Z,2.40
2023-02-02T02:47:39.337Z,2.17
2023-02-02T02:50:08.071Z,2.47
2023-02-02T02:52:37.321Z,2.58
2023-02-02T02:55:06.706Z,2.50
2023-02-02T02:57:42.833Z,2.85
2023-02-02T03:00:20.818Z,2.47
2023-02-02T03:02:56.971Z,3.10
2023-02-02T03:05:32.956Z,2.50
2023-02-02T03:08:08.891Z,3.00
2023-02-02T03:10:37.880Z,2.88
2023-02-02T03:13:08.970Z,2.40
2023-02-02T03:15:37.329Z,2.15
2023-02-02T03:18:07.617Z,2.85
2023-02-02T03:20:35.915Z,2.42
2023-02-02T03:23:04.804Z,2.20
2023-02-02T03:25:33.186Z,2.47
2023-02-02T03:28:01.731Z,2.25
2023-02-02T03:30:29.969Z,2.10
2023-02-02T03:32:58.317Z,2.10
2023-02-02T03:35:28.068Z,2.72
2023-02-02T03:37:56.438Z,2.67
2023-02-02T03:40:24.588Z,2.75
2023-02-02T03:42:53.359Z,2.67
2023-02-02T03:45:21.742Z,2.50
2023-02-02T03:47:50.292Z,2.67
2023-02-02T03:50:18.760Z,2.53
2023-02-02T03:52:48.740Z,2.35
2023-02-02T03:55:17.223Z,2.72
2023-02-02T03:57:45.995Z,2.33
2023-02-02T04:00:14.797Z,2.90
2023-02-02T04:02:43.598Z,2.87
2023-02-02T04:05:11.838Z,2.60
2023-02-02T04:07:40.257Z,2.70
2023-02-02T04:10:11.280Z,2.42
2023-02-02T04:12:39.731Z,2.80
2023-02-02T04:15:09.091Z,2.50
2023-02-02T04:17:37.479Z,2.50
2023-02-02T04:20:06.752Z,3.30
2023-02-02T04:22:35.165Z,3.55
2023-02-02T04:25:03.489Z,2.72
2023-02-02T04:27:34.059Z,2.13
2023-02-02T04:30:02.265Z,2.95
2023-02-02T04:32:30.609Z,2.05
2023-02-02T04:34:58.671Z,2.67
2023-02-02T04:37:27.766Z,2.35
2023-02-02T04:39:55.871Z,2.40
2023-02-02T04:42:24.314Z,2.97
2023-02-02T04:44:53.911Z,3.33
2023-02-02T04:47:22.342Z,2.50
2023-02-02T04:49:50.520Z,3.15
2023-02-02T04:52:18.865Z,2.77
2023-02-02T04:54:46.982Z,2.92
2023-02-02T04:57:15.493Z,2.97
2023-02-02T04:59:43.599Z,3.22
2023-02-02T05:02:13.333Z,2.92
2023-02-02T05:04:41.604Z,2.77
2023-02-02T05:07:09.997Z,2.72
2023-02-02T05:09:38.198Z,2.67
2023-02-02T05:12:06.648Z,2.38
2023-02-02T05:14:34.991Z,2.80
2023-02-02T05:17:03.621Z,2.77
2023-02-02T05:19:33.144Z,2.78
2023-02-02T05:22:01.861Z,2.78
2023-02-02T05:24:29.916Z,2.80
2023-02-02T05:27:00.705Z,2.90
2023-02-02T05:29:28.944Z,2.00
2023-02-02T05:31:57.679Z,2.53
2023-02-02T05:34:26.458Z,2.50
2023-02-02T05:36:56.300Z,2.65
2023-02-02T05:39:24.349Z,2.30
2023-02-02T05:41:52.868Z,2.23
2023-02-02T05:44:20.985Z,2.30
2023-02-02T05:46:49.322Z,2.63
2023-02-02T05:49:17.384Z,2.08
2023-02-02T05:51:47.963Z,2.50
2023-02-02T05:54:20.392Z,2.60
2023-02-02T05:56:53.142Z,2.17
2023-02-02T05:59:21.538Z,2.40
2023-02-02T06:01:50.202Z,2.22
2023-02-02T06:04:18.578Z,2.42
2023-02-02T06:06:47.993Z,2.47
2023-02-02T06:09:17.532Z,2.97
2023-02-02T06:11:46.502Z,3.60
2023-02-02T06:14:15.824Z,2.50
2023-02-02T06:16:44.257Z,3.08
2023-02-02T06:19:12.314Z,2.50
2023-02-02T06:21:40.909Z,2.70
2023-02-02T06:24:09.512Z,2.55
2023-02-02T06:26:39.327Z,2.47
2023-02-02T06:29:07.843Z,2.80
2023-02-02T06:31:36.392Z,2.20
2023-02-02T06:34:04.746Z,2.60
2023-02-02T06:36:33.176Z,3.10
2023-02-02T06:39:02.346Z,2.70
2023-02-02T06:41:31.587Z,2.50
2023-02-02T06:44:01.184Z,2.13
2023-02-02T06:46:29.596Z,2.65
2023-02-02T06:48:57.694Z,2.90
2023-02-02T06:51:26.198Z,2.33
2023-02-02T06:53:54.317Z,2.50
2023-02-02T06:56:22.985Z,2.60
2023-02-02T06:58:51.072Z,2.42
2023-02-02T07:01:20.793Z,2.25
2023-02-02T07:03:49.305Z,2.20
2023-02-02T07:06:20.339Z,2.38
2023-02-02T07:08:59.586Z,2.20
2023-02-02T07:11:33.861Z,2.35
2023-02-02T07:14:05.015Z,2.33
2023-02-02T07:16:34.868Z,2.25
2023-02-02T07:19:02.973Z,2.13
2023-02-02T07:21:35.783Z,2.30
2023-02-02T07:24:05.352Z,2.00
2023-02-02T07:26:35.429Z,2.83
2023-02-02T07:29:04.566Z,3.20
2023-02-02T07:31:36.500Z,2.65
2023-02-02T07:34:05.436Z,2.67
2023-02-02T07:36:34.078Z,2.63
2023-02-02T07:39:05.102Z,3.22
2023-02-02T07:41:35.318Z,2.63
2023-02-02T07:44:03.727Z,2.92
2023-02-02T07:46:32.366Z,2.70
2023-02-02T07:49:02.168Z,2.50
2023-02-02T07:51:30.588Z,3.10
2023-02-02T07:53:59.423Z,3.60
2023-02-02T07:56:29.100Z,2.30
2023-02-02T07:58:57.995Z,2.60
2023-02-02T08:01:28.707Z,2.63
2023-02-02T08:03:59.143Z,2.75
2023-02-02T08:06:31.394Z,2.83
2023-02-02T08:09:00.384Z,2.45
2023-02-02T08:11:29.684Z,2.43
2023-02-02T08:13:59.768Z,2.40
2023-02-02T08:16:29.404Z,2.55
2023-02-02T08:18:57.740Z,2.42
2023-02-02T08:21:26.290Z,2.65
2023-02-02T08:23:55.989Z,2.50
2023-02-02T08:26:26.517Z,2.20
2023-02-02T08:28:57.263Z,2.63
2023-02-02T08:31:28.197Z,2.63
2023-02-02T08:33:58.540Z,2.90
2023-02-02T08:36:28.761Z,2.63
2023-02-02T08:39:03.056Z,2.50
2023-02-02T08:41:32.410Z,3.05
2023-02-02T08:44:00.916Z,2.45
2023-02-02T08:46:29.572Z,2.67
2023-02-02T08:48:57.772Z,2.83
2023-02-02T08:51:26.258Z,2.80
2023-02-02T08:53:54.831Z,2.63
2023-02-02T08:56:25.132Z,2.13
2023-02-02T08:58:54.503Z,3.53
2023-02-02T09:01:24.660Z,2.80
2023-02-02T09:03:54.968Z,2.35
2023-02-02T09:06:27.556Z,2.60
2023-02-02T09:08:56.197Z,2.80
2023-02-02T09:11:26.250Z,2.58
2023-02-02T09:13:56.766Z,3.03
2023-02-02T09:16:26.292Z,2.65
2023-02-02T09:18:55.284Z,2.58
2023-02-02T09:21:25.816Z,2.45
2023-02-02T09:23:55.036Z,2.58
2023-02-02T09:26:24.953Z,2.63
2023-02-02T09:28:56.877Z,2.10
2023-02-02T09:31:26.431Z,2.05
2023-02-02T09:33:54.769Z,2.30
2023-02-02T09:36:24.705Z,2.28
2023-02-02T09:38:52.890Z,1.83
2023-02-02T09:41:54.281Z,2.40
2023-02-02T09:44:36.648Z,2.33
2023-02-02T09:47:12.749Z,1.92
2023-02-02T09:49:46.345Z,2.22
2023-02-02T09:52:18.701Z,1.70
2023-02-02T09:54:48.593Z,1.90
2023-02-02T09:57:21.042Z,2.00
2023-02-02T09:59:52.363Z,1.92
2023-02-02T10:02:23.543Z,1.88
2023-02-02T10:04:53.827Z,2.30
2023-02-02T10:07:27.940Z,1.70
2023-02-02T10:10:00.375Z,2.20
2023-02-02T10:12:34.930Z,2.33
2023-02-02T10:15:13.133Z,1.88
2023-02-02T10:17:45.747Z,2.03
2023-02-02T10:20:22.165Z,1.85
2023-02-02T10:22:51.063Z,2.15
2023-02-02T10:25:20.419Z,1.55
2023-02-02T10:27:57.794Z,2.58
2023-02-02T10:30:35.424Z,2.17
2023-02-02T10:33:06.915Z,2.33
2023-02-02T10:35:40.348Z,2.00
2023-02-02T10:38:16.599Z,1.70
2023-02-02T10:40:52.108Z,1.95
2023-02-02T10:43:47.188Z,1.43
2023-02-02T10:46:21.448Z,2.10
2023-02-02T10:48:50.705Z,1.50
2023-02-02T10:51:22.661Z,1.85
2023-02-02T10:53:52.629Z,1.67
2023-02-02T10:56:24.387Z,1.80
2023-02-02T10:58:58.347Z,1.85
2023-02-02T11:01:27.876Z,1.70
2023-02-02T11:04:10.780Z,1.75
2023-02-02T11:06:50.871Z,1.92
2023-02-02T11:09:21.638Z,1.83
2023-02-02T11:11:52.963Z,1.73
2023-02-02T11:14:30.245Z,1.88
2023-02-02T11:17:04.684Z,1.60
2023-02-02T11:19:34.282Z,1.70
2023-02-02T11:22:03.947Z,1.87
2023-02-02T11:24:36.853Z,2.00
2023-02-02T11:27:08.560Z,2.10
2023-02-02T11:29:43.677Z,1.92
2023-02-02T11:32:27.921Z,2.58
2023-02-02T11:35:18.253Z,2.10
2023-02-02T11:38:01.688Z,2.10
2023-02-02T11:40:36.026Z,2.85
2023-02-02T11:43:06.447Z,2.15
2023-02-02T11:45:37.086Z,2.78
2023-02-02T11:48:15.925Z,2.20
2023-02-02T11:50:47.274Z,1.95
2023-02-02T11:53:24.837Z,2.28
2023-02-02T11:55:54.064Z,1.85
2023-02-02T11:58:27.902Z,2.28
2023-02-02T12:00:59.263Z,1.90
2023-02-02T12:03:32.421Z,1.70
2023-02-02T12:06:02.341Z,1.83
2023-02-02T12:08:31.140Z,1.75
2023-02-02T12:11:01.548Z,1.98
2023-02-02T12:13:47.548Z,2.10
2023-02-02T12:16:29.525Z,1.70
2023-02-02T12:19:09.833Z,2.40
2023-02-02T12:21:43.129Z,1.73
2023-02-02T12:24:31.637Z,1.90
2023-02-02T12:27:11.594Z,2.10
2023-02-02T12:29:48.173Z,1.63
2023-02-02T12:32:27.473Z,1.73
2023-02-02T12:35:06.255Z,1.88
2023-02-02T12:37:47.833Z,1.77
2023-02-02T12:40:34.599Z,1.33
2023-02-02T12:43:11.416Z,2.08
2023-02-02T12:45:52.221Z,1.77
2023-02-02T12:48:35.856Z,1.50
2023-02-02T12:51:16.120Z,1.40
2023-02-02T12:54:32.857Z,2.00
2023-02-02T12:56:55.221Z,1.85
2023-02-02T12:59:34.751Z,1.80
2023-02-02T13:02:06.611Z,1.67
2023-02-02T13:04:52.915Z,1.67
2023-02-02T13:07:35.440Z,1.33
2023-02-02T13:10:18.417Z,2.22
2023-02-02T13:12:50.050Z,1.50
2023-02-02T13:15:22.446Z,1.65
2023-02-02T13:17:54.936Z,1.48
2023-02-02T13:20:37.359Z,1.40
2023-02-02T13:23:11.339Z,1.55
2023-02-02T13:25:45.102Z,1.70
2023-02-02T13:28:25.835Z,1.73
2023-02-02T13:30:55.098Z,1.42
2023-02-02T13:33:26.408Z,1.33
2023-02-02T13:35:56.495Z,1.50
2023-02-02T13:38:27.452Z,1.88
2023-02-02T13:40:57.231Z,1.75
2023-02-02T13:43:39.517Z,1.60
2023-02-02T13:46:16.718Z,1.50
2023-02-02T13:48:54.056Z,1.80
2023-02-02T13:51:43.801Z,1.42
2023-02-02T13:54:49.208Z,1.50
2023-02-02T13:57:48.502Z,1.70
2023-02-02T14:00:18.893Z,1.53
2023-02-02T14:02:50.049Z,1.30
2023-02-02T14:05:24.789Z,1.77
2023-02-02T14:08:00.409Z,1.30
2023-02-02T14:10:32.260Z,1.45
2023-02-02T14:13:29.396Z,1.87
2023-02-02T14:15:59.563Z,2.10
2023-02-02T14:18:56.119Z,1.40
2023-02-02T14:22:02.686Z,1.30
2023-02-02T14:24:43.391Z,1.50
2023-02-02T14:27:43.015Z,2.00
2023-02-02T14:30:33.001Z,1.70
2023-02-02T14:33:25.926Z,1.50
2023-02-02T14:36:03.980Z,1.50
2023-02-02T14:38:51.118Z,1.45
2023-02-02T14:41:40.717Z,1.90
2023-02-02T14:44:08.862Z,1.52
2023-02-02T14:46:39.853Z,1.70
2023-02-02T14:49:17.826Z,2.20
2023-02-02T14:51:50.513Z,1.70
2023-02-02T14:54:24.271Z,1.80
2023-02-02T14:56:56.412Z,2.38
2023-02-02T14:59:28.411Z,1.90
2023-02-02T15:02:04.107Z,2.08
2023-02-02T15:04:32.251Z,2.20
2023-02-02T15:07:34.133Z,1.70
2023-02-02T15:10:02.310Z,1.85
2023-02-02T15:12:34.913Z,1.88
2023-02-02T15:15:20.040Z,1.58
2023-02-02T15:18:01.348Z,2.10
2023-02-02T15:20:31.547Z,2.10
2023-02-02T15:23:03.623Z,2.63
2023-02-02T15:25:35.652Z,2.85
2023-02-02T15:28:13.244Z,2.45
2023-02-02T15:30:45.143Z,2.70
2023-02-02T15:33:27.452Z,1.90
2023-02-02T15:35:58.230Z,1.65
2023-02-02T15:38:33.693Z,1.90
2023-02-02T15:41:07.053Z,2.35
2023-02-02T15:43:35.876Z,2.10
2023-02-02T15:46:06.148Z,1.97
2023-02-02T15:48:36.438Z,2.10
2023-02-02T15:51:06.678Z,2.30
2023-02-02T15:53:47.442Z,1.77
2023-02-02T15:56:20.676Z,1.55
2023-02-02T15:58:49.721Z,1.70
2023-02-02T16:01:20.760Z,1.90
2023-02-02T16:03:53.022Z,1.80
2023-02-02T16:06:21.972Z,2.13
2023-02-02T16:08:50.656Z,2.30
2023-02-02T16:11:23.154Z,1.70
2023-02-02T16:14:00.593Z,2.58
2023-02-02T16:16:30.908Z,1.80
2023-02-02T16:19:07.293Z,2.63
2023-02-02T16:21:37.152Z,2.85
2023-02-02T16:24:07.137Z,1.93
2023-02-02T16:26:36.034Z,2.33
2023-02-02T16:29:04.620Z,2.38
2023-02-02T16:31:33.130Z,2.10
2023-02-02T16:34:02.616Z,2.30
2023-02-02T16:36:32.462Z,2.20
2023-02-02T16:39:01.345Z,3.05
2023-02-02T16:41:33.089Z,2.70
2023-02-02T16:44:31.199Z,2.60
2023-02-02T16:47:00.690Z,2.25
2023-02-02T16:49:29.962Z,1.90
2023-02-02T16:52:14.510Z,2.08
2023-02-02T16:54:50.722Z,2.22
2023-02-02T16:57:21.052Z,1.70
2023-02-02T16:59:54.737Z,2.00
2023-02-02T17:02:29.225Z,2.10
2023-02-02T17:05:00.607Z,1.70
2023-02-02T17:07:31.072Z,1.90
2023-02-02T17:10:23.258Z,1.60
2023-02-02T17:12:51.482Z,1.63
2023-02-02T17:15:34.509Z,2.17
2023-02-02T17:18:04.154Z,2.00
2023-02-02T17:20:34.740Z,1.67
2023-02-02T17:23:06.892Z,2.00
2023-02-02T17:25:37.445Z,2.05
2023-02-02T17:28:09.271Z,2.40
2023-02-02T17:30:38.043Z,2.15
2023-02-02T17:33:06.944Z,1.73
2023-02-02T17:35:52.720Z,2.83
2023-02-02T17:38:24.675Z,1.65
2023-02-02T17:40:53.990Z,2.40
2023-02-02T17:43:22.802Z,1.83
2023-02-02T17:45:51.374Z,2.30
2023-02-02T17:48:20.669Z,1.92
2023-02-02T17:50:49.057Z,1.90
2023-02-02T17:53:19.552Z,2.10
2023-02-02T17:55:51.503Z,2.20
2023-02-02T17:58:20.015Z,2.20
2023-02-02T18:00:51.339Z,2.50
2023-02-02T18:03:21.912Z,3.15
2023-02-02T18:05:50.893Z,1.60
2023-02-02T18:08:19.030Z,2.30
2023-02-02T18:10:48.931Z,2.53
2023-02-02T18:13:19.065Z,2.17
2023-02-02T18:15:48.001Z,2.30
2023-02-02T18:18:16.184Z,1.80
2023-02-02T18:20:46.001Z,1.98
2023-02-02T18:23:14.767Z,2.30
2023-02-02T18:25:43.633Z,1.88
2023-02-02T18:28:17.290Z,1.75
2023-02-02T18:30:46.443Z,2.00
2023-02-02T18:33:17.569Z,2.20
2023-02-02T18:35:47.237Z,1.80
2023-02-02T18:38:15.672Z,1.70
2023-02-02T18:40:44.445Z,2.38
2023-02-02T18:43:13.940Z,2.20
2023-02-02T18:45:42.653Z,1.77
2023-02-02T18:48:10.968Z,2.70
2023-02-02T18:50:39.299Z,2.75
2023-02-02T18:53:07.637Z,2.63
2023-02-02T18:55:38.214Z,1.80
2023-02-02T18:58:10.388Z,2.38
2023-02-02T19:00:40.297Z,2.22
2023-02-02T19:03:08.424Z,2.83
2023-02-02T19:06:06.616Z,3.00
2023-02-02T19:08:34.789Z,2.70
2023-02-02T19:11:10.586Z,2.70
2023-02-02T19:13:38.946Z,2.70
2023-02-02T19:16:18.296Z,2.72
2023-02-02T19:18:47.421Z,2.30
2023-02-02T19:21:16.252Z,3.23
2023-02-02T19:23:46.259Z,2.67
2023-02-02T19:26:24.518Z,2.25
2023-02-02T19:28:53.681Z,3.05
2023-02-02T19:31:24.192Z,2.97
2023-02-02T19:33:53.567Z,2.40
2023-02-02T19:36:23.620Z,2.85
2023-02-02T19:38:53.984Z,3.17
2023-02-02T19:41:24.584Z,3.00
2023-02-02T19:43:58.344Z,8.52
2023-02-02T19:46:28.770Z,5.87
2023-02-02T19:49:02.525Z,3.38
2023-02-02T19:51:41.786Z,2.55
2023-02-02T19:54:25.863Z,2.60
2023-02-02T19:56:57.942Z,2.40
2023-02-02T19:59:28.122Z,2.20
2023-02-02T20:02:00.503Z,2.53
2023-02-02T20:04:29.134Z,2.83
2023-02-02T20:06:59.636Z,2.60
2023-02-02T20:09:31.092Z,2.65
2023-02-02T20:12:00.654Z,2.37
2023-02-02T20:14:30.512Z,2.80
2023-02-02T20:17:02.429Z,3.00
2023-02-02T20:19:35.181Z,2.95
2023-02-02T20:22:04.757Z,3.38
2023-02-02T20:24:36.758Z,2.40
2023-02-02T20:27:11.555Z,3.28
2023-02-02T20:29:41.977Z,2.40
2023-02-02T20:32:21.236Z,3.58
2023-02-02T20:34:50.248Z,2.60
2023-02-02T20:37:23.375Z,2.67
2023-02-02T20:39:54.901Z,2.17
2023-02-02T20:42:23.669Z,2.70
2023-02-02T20:44:52.530Z,2.38
2023-02-02T20:47:22.472Z,2.55
2023-02-02T20:49:50.717Z,2.77
2023-02-02T20:52:23.884Z,2.78
2023-02-02T20:54:52.778Z,3.17
2023-02-02T20:57:21.151Z,3.30
2023-02-02T20:59:49.656Z,3.15
2023-02-02T21:02:19.830Z,3.73
2023-02-02T21:04:49.857Z,2.75
2023-02-02T21:07:20.068Z,3.08
2023-02-02T21:09:50.150Z,2.88
2023-02-02T21:12:18.735Z,2.78
2023-02-02T21:14:47.035Z,3.00
2023-02-02T21:17:16.190Z,2.95
2023-02-02T21:19:44.718Z,2.83
2023-02-02T21:22:14.668Z,2.70
2023-02-02T21:24:42.903Z,3.28
2023-02-02T21:27:13.094Z,2.57
2023-02-02T21:29:41.503Z,2.38
2023-02-02T21:32:10.888Z,2.88
2023-02-02T21:34:39.178Z,2.28
2023-02-02T21:37:14.922Z,3.15
2023-02-02T21:39:48.262Z,2.67
2023-02-02T21:42:18.458Z,2.55
2023-02-02T21:44:49.736Z,2.60
2023-02-02T21:47:30.813Z,3.22
2023-02-02T21:50:00.965Z,2.92
2023-02-02T21:52:34.007Z,2.20
2023-02-02T21:55:27.608Z,2.72
2023-02-02T21:57:57.765Z,2.83
2023-02-02T22:00:30.857Z,2.40
2023-02-02T22:02:59.869Z,2.20
2023-02-02T22:05:30.430Z,2.40
2023-02-02T22:08:00.457Z,2.47
2023-02-02T22:10:36.495Z,2.80
2023-02-02T22:13:16.120Z,2.95
2023-02-02T22:15:46.051Z,2.40
2023-02-02T22:18:17.068Z,2.87
2023-02-02T22:20:47.375Z,2.75
2023-02-02T22:23:18.660Z,2.60
2023-02-02T22:25:48.189Z,2.55
2023-02-02T22:28:22.465Z,2.55
2023-02-02T22:30:52.027Z,2.63
2023-02-02T22:33:21.339Z,2.70
2023-02-02T22:35:49.787Z,2.95
2023-02-02T22:38:20.988Z,2.65
2023-02-02T22:40:50.065Z,3.00
2023-02-02T22:43:19.016Z,2.70
2023-02-02T22:45:47.365Z,3.03
2023-02-02T22:48:16.442Z,2.38
2023-02-02T22:50:44.897Z,3.15
2023-02-02T22:53:14.084Z,3.78
2023-02-02T22:55:44.075Z,3.60
2023-02-02T22:58:12.551Z,3.28
2023-02-02T23:00:41.026Z,5.25
2023-02-02T23:03:09.586Z,3.53
2023-02-02T23:05:38.342Z,3.45
2023-02-02T23:08:06.818Z,3.03
2023-02-02T23:10:35.834Z,2.83
2023-02-02T23:13:07.100Z,2.90
2023-02-02T23:15:36.180Z,3.20
2023-02-02T23:18:04.976Z,3.65
2023-02-02T23:20:33.442Z,2.50
2023-02-02T23:23:01.891Z,2.97
2023-02-02T23:25:30.288Z,2.80
2023-02-02T23:27:58.840Z,2.80
2023-02-02T23:30:28.639Z,2.60
2023-02-02T23:32:57.455Z,3.00
2023-02-02T23:35:25.623Z,3.28
2023-02-02T23:37:54.422Z,3.20
2023-02-02T23:40:22.500Z,2.80
2023-02-02T23:42:51.002Z,3.40
2023-02-02T23:45:19.171Z,3.10
2023-02-02T23:47:48.980Z,3.08
2023-02-02T23:50:17.386Z,2.88
2023-02-02T23:52:46.021Z,3.05
2023-02-02T23:55:15.010Z,3.15
2023-02-02T23:57:43.381Z,2.93
